Accueil
METAR-TAF:

METAR-TAF

Aéroports :

Aéroport de Lydd

Lydd, Angleterre

latitude: 50-57N, longitude: 000-56E, altitude: 3 m

Observation

Le bulletin a été fait il y a 15 minutes, à 16:50 UTC
Vent 12 kt de sud-ouest
Température 10°C
Humidité 71%
Pression 1028 hPa
Visibilité 10 km ou plus
pas de nuages en-dessous de 1500 mètres et pas de cumulonimbus.

METAR: EGMD 241650Z 23012KT CAVOK 10/05 Q1028

Heure: 17:05 (17:05 UTC)

Prévision

Le bulletin a été fait il y a 3 heures et 9 minutes, à 13:56 UTC
Prévision valable du 24 à 15 UTC au 24 à 24 UTC
Vent 8 kt de sud-ouest
Visibilité 10 km ou plus
Quelques nuages à une hauteur de 4500 ft

TAF: EGMD 241356Z 2415/2424 22008KT 9999 FEW045

Observations et prévisions météorologiques de plus de 4000 aéroports (messages METAR et TAF).

Les stations disponibles sont représentées par des disques jaunes et rouges sur la carte.

Passer la souris dessus pour voir le nom de la station.

Cliquer dessus pour voir les observations et prévisions météorologiques.

Pour changer de carte: cliquez sur les boutons verts avec une croix noire pour zoomer, sur le bouton vert avec un tiret pour effectuer un zoom arrière, ou sur les flèches vertes pour les cartes adjacentes.


METAR-TAF: